La Pine, OR (97739)

10:56 PM PDT on October 20, 2014 (GMT -0700)
Deedon Lane | Change Station
CLOSE
Current Station
Personal Weather Station
Location: La Pine, OR
Elevation: 4256 ft
Nearby Weather Stations

Elev 4256 ft 43.72 °N, 121.53 °W | Updated 11 minutes ago

Partly Cloudy
Partly Cloudy
41.7 °F
Feels Like 42 °F
N
0.0
Wind Variable Wind from SSE
Gusts 0.0 mph

Today
High -- | Low -- °F
--% Chance of Precip.
Yesterday
High -- | Low -- °F
Precip. -- in
7:26 AM 6:14 PM
Waning Crescent, 7% visible
Pressure 29.91 in
Visibility 10.0 miles
Clouds Mostly Cloudy 4700 ft
Mostly Cloudy 5000 ft
Windchill 42 °F
Dew Point 38 °F
Humidity 86%
Rainfall 0.09 in
Snow Depth Not available.
UV 0 out of 12
Pollen .30 out of 12
Air Quality Not available.
Flu Activity Sporadic
METAR KBDN 210535Z AUTO 23006KT 10SM BKN047 BKN050 08/03 A2991 RMK AO2

More Conditions Fewer Conditions

Pressure 29.91 in
Visibility 10.0 miles
Clouds Mostly Cloudy 4700 ft
Mostly Cloudy 5000 ft
Windchill 42 °F
Dew Point 38 °F
Humidity 86%
Rainfall 0.09 in
Snow Depth Not available.
UV 0 out of 12
Pollen .30 out of 12
Air Quality Not available.
Flu Activity Sporadic
METAR KBDN 210535Z AUTO 23006KT 10SM BKN047 BKN050 08/03 A2991 RMK AO2

More Conditions Fewer Conditions

10-Day Weather Forecast

Almanac

Astronomy

Oct. 20, 2014 Rise Set
Actual Time 7:26 AM PDT 6:14 PM PDT
Civil Twilight 6:57 AM PDT 6:43 PM PDT
Nautical Twilight 6:24 AM PDT 7:16 PM PDT
Astronomical Twilight 5:50 AM PDT 7:50 PM PDT
Moon 4:14 AM PDT (10/20) 4:44 PM PDT (10/20)
Length of Visible Light 11h 45m
Length of Day
10h 47m
Tomorrow will be 2m 50s shorter.
Waning Crescent, 7% of the Moon is Illuminated
Oct 21
Waning Crescent
Oct 23
New
Oct 30
First Quarter
Nov 6
Full
Nov 14
Last Quarter

Yesterday's Extremes

State Highs State Lows

Community

WunderPhotos

Upload Photos

1,763,613 photos uploaded!

Nearby

Snow Depth

Station Depth Elevation
Irish Taylor 0 in 5500 ft
Cascade Summit 0 in 4880 ft
New Crescent Lake 0 in 4800 ft
Salt Creek Falls 0 in 4000 ft
Roaring River 0 in 4900 ft

Earthquake Activity

City Distance Mag. Time & Date
No recent earthquake activity has been reported nearby.
Minimum magnitude displayed is 2.5.

Coastal Water Temperatures

Place Temperature
No Stations Reporting

Nearby Weather Stations